sensor_id;sensor_type;location;lat;lon;timestamp;pressure;altitude;pressure_sealevel;temperature;humidity
59650;BME280;46162;57.568;25.814;2022-11-15T00:02:42;101333.03;;;-0.37;100.00
59650;BME280;46162;57.568;25.814;2022-11-15T00:05:29;101330.53;;;-0.40;100.00
59650;BME280;46162;57.568;25.814;2022-11-15T00:08:16;101321.97;;;-0.27;100.00
59650;BME280;46162;57.568;25.814;2022-11-15T00:11:04;101312.63;;;-0.35;100.00
59650;BME280;46162;57.568;25.814;2022-11-15T00:13:54;101305.97;;;-0.25;100.00
59650;BME280;46162;57.568;25.814;2022-11-15T00:16:42;101303.81;;;-0.36;100.00
59650;BME280;46162;57.568;25.814;2022-11-15T00:19:29;101298.44;;;-0.34;100.00
59650;BME280;46162;57.568;25.814;2022-11-15T00:22:16;101300.09;;;-0.32;100.00
59650;BME280;46162;57.568;25.814;2022-11-15T00:25:04;101295.25;;;-0.22;100.00
59650;BME280;46162;57.568;25.814;2022-11-15T00:27:55;101291.50;;;-0.18;100.00
59650;BME280;46162;57.568;25.814;2022-11-15T00:30:44;101295.56;;;-0.09;100.00
59650;BME280;46162;57.568;25.814;2022-11-15T00:33:31;101274.03;;;-0.03;100.00
59650;BME280;46162;57.568;25.814;2022-11-15T00:36:19;101274.19;;;-0.06;100.00
59650;BME280;46162;57.568;25.814;2022-11-15T00:39:06;101258.41;;;-0.09;100.00
59650;BME280;46162;57.568;25.814;2022-11-15T00:41:54;101263.56;;;-0.06;100.00
59650;BME280;46162;57.568;25.814;2022-11-15T00:44:41;101254.53;;;-0.02;100.00
59650;BME280;46162;57.568;25.814;2022-11-15T00:47:30;101261.41;;;0.02;100.00
59650;BME280;46162;57.568;25.814;2022-11-15T00:50:17;101250.78;;;0.02;100.00
59650;BME280;46162;57.568;25.814;2022-11-15T00:53:04;101240.69;;;0.10;100.00
59650;BME280;46162;57.568;25.814;2022-11-15T00:55:52;101244.28;;;0.09;100.00
59650;BME280;46162;57.568;25.814;2022-11-15T00:58:39;101230.94;;;0.11;100.00
59650;BME280;46162;57.568;25.814;2022-11-15T01:01:26;101222.47;;;0.03;100.00
59650;BME280;46162;57.568;25.814;2022-11-15T01:04:15;101208.25;;;0.04;100.00
59650;BME280;46162;57.568;25.814;2022-11-15T01:07:02;101201.56;;;-0.05;100.00
59650;BME280;46162;57.568;25.814;2022-11-15T01:09:50;101196.19;;;-0.04;100.00
59650;BME280;46162;57.568;25.814;2022-11-15T01:12:37;101187.06;;;0.02;100.00
59650;BME280;46162;57.568;25.814;2022-11-15T01:15:25;101186.53;;;-0.05;100.00
59650;BME280;46162;57.568;25.814;2022-11-15T01:18:12;101187.53;;;-0.07;100.00
59650;BME280;46162;57.568;25.814;2022-11-15T01:21:04;101178.78;;;-0.09;100.00
59650;BME280;46162;57.568;25.814;2022-11-15T01:23:52;101173.03;;;0.00;100.00
59650;BME280;46162;57.568;25.814;2022-11-15T01:26:40;101166.84;;;-0.01;100.00
59650;BME280;46162;57.568;25.814;2022-11-15T01:29:27;101170.09;;;0.06;100.00
59650;BME280;46162;57.568;25.814;2022-11-15T01:32:15;101164.47;;;0.12;100.00
59650;BME280;46162;57.568;25.814;2022-11-15T01:35:03;101152.13;;;0.11;100.00
59650;BME280;46162;57.568;25.814;2022-11-15T01:37:52;101141.88;;;0.04;100.00
59650;BME280;46162;57.568;25.814;2022-11-15T01:40:39;101137.59;;;0.01;100.00
59650;BME280;46162;57.568;25.814;2022-11-15T01:43:29;101141.81;;;0.05;100.00
59650;BME280;46162;57.568;25.814;2022-11-15T01:46:27;101135.13;;;0.15;100.00
59650;BME280;46162;57.568;25.814;2022-11-15T01:49:17;101131.16;;;0.24;100.00
59650;BME280;46162;57.568;25.814;2022-11-15T01:52:09;101125.16;;;0.20;100.00
59650;BME280;46162;57.568;25.814;2022-11-15T01:55:03;101129.59;;;0.20;100.00
59650;BME280;46162;57.568;25.814;2022-11-15T01:57:56;101115.44;;;0.19;100.00
59650;BME280;46162;57.568;25.814;2022-11-15T02:00:44;101115.00;;;0.29;100.00
59650;BME280;46162;57.568;25.814;2022-11-15T02:03:38;101105.78;;;0.36;100.00
59650;BME280;46162;57.568;25.814;2022-11-15T02:06:26;101095.00;;;0.39;100.00
59650;BME280;46162;57.568;25.814;2022-11-15T02:09:14;101092.19;;;0.42;100.00
59650;BME280;46162;57.568;25.814;2022-11-15T02:12:04;101091.28;;;0.43;100.00
59650;BME280;46162;57.568;25.814;2022-11-15T02:14:54;101076.75;;;0.50;100.00
59650;BME280;46162;57.568;25.814;2022-11-15T02:18:06;101076.91;;;0.47;100.00
59650;BME280;46162;57.568;25.814;2022-11-15T02:21:11;101065.00;;;0.72;100.00
59650;BME280;46162;57.568;25.814;2022-11-15T02:31:00;101044.06;;;0.66;100.00
59650;BME280;46162;57.568;25.814;2022-11-15T02:33:53;101038.19;;;0.76;100.00
59650;BME280;46162;57.568;25.814;2022-11-15T02:36:56;101027.47;;;0.78;100.00
59650;BME280;46162;57.568;25.814;2022-11-15T02:39:51;101030.09;;;0.95;100.00
59650;BME280;46162;57.568;25.814;2022-11-15T02:42:43;101005.56;;;0.90;100.00
59650;BME280;46162;57.568;25.814;2022-11-15T02:46:00;101006.22;;;0.78;100.00
59650;BME280;46162;57.568;25.814;2022-11-15T02:48:48;100995.22;;;0.68;100.00
59650;BME280;46162;57.568;25.814;2022-11-15T02:51:36;100978.63;;;0.47;100.00
59650;BME280;46162;57.568;25.814;2022-11-15T02:54:25;100972.66;;;0.42;100.00
59650;BME280;46162;57.568;25.814;2022-11-15T02:57:16;100981.56;;;0.41;100.00
59650;BME280;46162;57.568;25.814;2022-11-15T03:00:07;100973.53;;;0.42;100.00
59650;BME280;46162;57.568;25.814;2022-11-15T03:03:17;100966.88;;;0.51;100.00
59650;BME280;46162;57.568;25.814;2022-11-15T03:06:19;100970.31;;;0.53;100.00
59650;BME280;46162;57.568;25.814;2022-11-15T03:09:11;100965.63;;;0.58;100.00
59650;BME280;46162;57.568;25.814;2022-11-15T03:12:04;100955.78;;;0.60;100.00
59650;BME280;46162;57.568;25.814;2022-11-15T03:14:57;100954.81;;;0.61;100.00
59650;BME280;46162;57.568;25.814;2022-11-15T03:17:50;100945.13;;;0.60;100.00
59650;BME280;46162;57.568;25.814;2022-11-15T03:20:42;100943.34;;;0.61;100.00
59650;BME280;46162;57.568;25.814;2022-11-15T03:23:30;100936.22;;;0.61;100.00
59650;BME280;46162;57.568;25.814;2022-11-15T03:26:20;100929.69;;;0.51;100.00
59650;BME280;46162;57.568;25.814;2022-11-15T03:29:12;100917.84;;;0.41;100.00
59650;BME280;46162;57.568;25.814;2022-11-15T03:32:03;100912.34;;;0.44;100.00
59650;BME280;46162;57.568;25.814;2022-11-15T03:34:56;100908.16;;;0.40;100.00
59650;BME280;46162;57.568;25.814;2022-11-15T03:37:50;100900.50;;;0.34;100.00
59650;BME280;46162;57.568;25.814;2022-11-15T03:40:40;100904.78;;;0.36;100.00
59650;BME280;46162;57.568;25.814;2022-11-15T03:43:32;100890.72;;;0.34;100.00
59650;BME280;46162;57.568;25.814;2022-11-15T03:46:25;100867.00;;;0.31;100.00
59650;BME280;46162;57.568;25.814;2022-11-15T03:49:16;100864.34;;;0.31;100.00
59650;BME280;46162;57.568;25.814;2022-11-15T03:52:06;100854.50;;;0.33;100.00
59650;BME280;46162;57.568;25.814;2022-11-15T03:54:56;100857.84;;;0.37;100.00
59650;BME280;46162;57.568;25.814;2022-11-15T03:57:43;100861.44;;;0.36;100.00
59650;BME280;46162;57.568;25.814;2022-11-15T04:00:31;100859.75;;;0.35;100.00
59650;BME280;46162;57.568;25.814;2022-11-15T04:03:18;100860.34;;;0.40;100.00
59650;BME280;46162;57.568;25.814;2022-11-15T04:06:06;100860.34;;;0.40;100.00
59650;BME280;46162;57.568;25.814;2022-11-15T04:08:56;100857.44;;;0.45;100.00
59650;BME280;46162;57.568;25.814;2022-11-15T04:11:45;100847.69;;;0.45;100.00
59650;BME280;46162;57.568;25.814;2022-11-15T04:14:33;100842.25;;;0.47;100.00
59650;BME280;46162;57.568;25.814;2022-11-15T04:17:20;100840.31;;;0.50;100.00
59650;BME280;46162;57.568;25.814;2022-11-15T04:20:10;100825.16;;;0.52;100.00
59650;BME280;46162;57.568;25.814;2022-11-15T04:23:17;100822.38;;;0.54;100.00
59650;BME280;46162;57.568;25.814;2022-11-15T04:26:23;100815.19;;;0.56;100.00
59650;BME280;46162;57.568;25.814;2022-11-15T04:29:14;100820.34;;;0.59;100.00
59650;BME280;46162;57.568;25.814;2022-11-15T04:32:19;100804.31;;;0.60;100.00
59650;BME280;46162;57.568;25.814;2022-11-15T04:35:07;100800.63;;;0.63;100.00
59650;BME280;46162;57.568;25.814;2022-11-15T04:37:55;100796.00;;;0.67;100.00
59650;BME280;46162;57.568;25.814;2022-11-15T04:40:43;100788.97;;;0.66;100.00
59650;BME280;46162;57.568;25.814;2022-11-15T04:43:31;100796.69;;;0.70;100.00
59650;BME280;46162;57.568;25.814;2022-11-15T04:46:20;100803.03;;;0.68;100.00
59650;BME280;46162;57.568;25.814;2022-11-15T04:49:08;100795.66;;;0.73;100.00
59650;BME280;46162;57.568;25.814;2022-11-15T04:51:55;100793.69;;;0.76;100.00
59650;BME280;46162;57.568;25.814;2022-11-15T04:54:42;100792.56;;;0.80;100.00
59650;BME280;46162;57.568;25.814;2022-11-15T04:57:30;100783.75;;;0.80;100.00
59650;BME280;46162;57.568;25.814;2022-11-15T05:00:21;100785.25;;;0.84;100.00
59650;BME280;46162;57.568;25.814;2022-11-15T05:03:10;100787.00;;;0.85;100.00
59650;BME280;46162;57.568;25.814;2022-11-15T05:06:15;100781.50;;;0.88;100.00
59650;BME280;46162;57.568;25.814;2022-11-15T05:09:03;100782.19;;;0.92;100.00
59650;BME280;46162;57.568;25.814;2022-11-15T05:11:50;100784.66;;;0.95;100.00
59650;BME280;46162;57.568;25.814;2022-11-15T05:14:38;100771.19;;;0.98;100.00
59650;BME280;46162;57.568;25.814;2022-11-15T05:17:25;100770.16;;;1.00;100.00
59650;BME280;46162;57.568;25.814;2022-11-15T05:20:14;100761.22;;;1.01;100.00
59650;BME280;46162;57.568;25.814;2022-11-15T05:23:02;100761.84;;;1.06;100.00
59650;BME280;46162;57.568;25.814;2022-11-15T05:25:50;100756.41;;;1.08;100.00
59650;BME280;46162;57.568;25.814;2022-11-15T05:28:38;100761.47;;;1.13;100.00
59650;BME280;46162;57.568;25.814;2022-11-15T05:31:26;100751.69;;;1.13;100.00
59650;BME280;46162;57.568;25.814;2022-11-15T05:34:14;100746.28;;;1.15;100.00
59650;BME280;46162;57.568;25.814;2022-11-15T05:37:04;100739.94;;;1.17;100.00
59650;BME280;46162;57.568;25.814;2022-11-15T05:39:51;100743.38;;;1.19;100.00
59650;BME280;46162;57.568;25.814;2022-11-15T05:42:39;100738.81;;;1.21;100.00
59650;BME280;46162;57.568;25.814;2022-11-15T05:45:26;100741.38;;;1.23;100.00
59650;BME280;46162;57.568;25.814;2022-11-15T05:48:14;100741.28;;;1.24;100.00
59650;BME280;46162;57.568;25.814;2022-11-15T05:51:02;100735.00;;;1.25;100.00
59650;BME280;46162;57.568;25.814;2022-11-15T05:53:52;100739.41;;;1.26;100.00
59650;BME280;46162;57.568;25.814;2022-11-15T05:56:40;100727.78;;;1.27;100.00
59650;BME280;46162;57.568;25.814;2022-11-15T05:59:29;100725.06;;;1.29;100.00
59650;BME280;46162;57.568;25.814;2022-11-15T06:02:16;100715.19;;;1.31;100.00
59650;BME280;46162;57.568;25.814;2022-11-15T06:05:04;100708.13;;;1.30;100.00
59650;BME280;46162;57.568;25.814;2022-11-15T06:07:51;100710.72;;;1.32;100.00
59650;BME280;46162;57.568;25.814;2022-11-15T06:10:40;100711.38;;;1.35;100.00
59650;BME280;46162;57.568;25.814;2022-11-15T06:13:29;100707.03;;;1.34;100.00
59650;BME280;46162;57.568;25.814;2022-11-15T06:16:16;100700.75;;;1.35;100.00
59650;BME280;46162;57.568;25.814;2022-11-15T06:19:05;100699.81;;;1.36;100.00
59650;BME280;46162;57.568;25.814;2022-11-15T06:21:53;100689.91;;;1.38;100.00
59650;BME280;46162;57.568;25.814;2022-11-15T06:24:40;100685.34;;;1.40;100.00
59650;BME280;46162;57.568;25.814;2022-11-15T06:27:31;100688.97;;;1.39;100.00
59650;BME280;46162;57.568;25.814;2022-11-15T06:30:18;100688.00;;;1.40;100.00
59650;BME280;46162;57.568;25.814;2022-11-15T06:33:05;100683.53;;;1.41;100.00
59650;BME280;46162;57.568;25.814;2022-11-15T06:35:54;100678.13;;;1.42;100.00
59650;BME280;46162;57.568;25.814;2022-11-15T06:38:41;100679.84;;;1.43;100.00
59650;BME280;46162;57.568;25.814;2022-11-15T06:41:28;100670.94;;;1.44;100.00
59650;BME280;46162;57.568;25.814;2022-11-15T06:44:17;100663.78;;;1.45;100.00
59650;BME280;46162;57.568;25.814;2022-11-15T06:47:04;100653.06;;;1.46;100.00
59650;BME280;46162;57.568;25.814;2022-11-15T06:49:51;100652.88;;;1.49;100.00
59650;BME280;46162;57.568;25.814;2022-11-15T06:52:38;100660.78;;;1.51;100.00
59650;BME280;46162;57.568;25.814;2022-11-15T06:55:25;100652.69;;;1.53;100.00
59650;BME280;46162;57.568;25.814;2022-11-15T06:58:13;100654.41;;;1.54;100.00
59650;BME280;46162;57.568;25.814;2022-11-15T07:01:03;100656.09;;;1.55;100.00
59650;BME280;46162;57.568;25.814;2022-11-15T07:03:51;100639.16;;;1.56;100.00
59650;BME280;46162;57.568;25.814;2022-11-15T07:06:38;100636.44;;;1.57;100.00
59650;BME280;46162;57.568;25.814;2022-11-15T07:09:26;100630.13;;;1.58;100.00
59650;BME280;46162;57.568;25.814;2022-11-15T07:12:13;100627.41;;;1.60;100.00
59650;BME280;46162;57.568;25.814;2022-11-15T07:15:00;100623.81;;;1.61;100.00
59650;BME280;46162;57.568;25.814;2022-11-15T07:17:49;100621.13;;;1.61;100.00
59650;BME280;46162;57.568;25.814;2022-11-15T07:20:36;100624.53;;;1.63;100.00
59650;BME280;46162;57.568;25.814;2022-11-15T07:23:23;100610.19;;;1.65;100.00
59650;BME280;46162;57.568;25.814;2022-11-15T07:26:11;100610.94;;;1.67;100.00
59650;BME280;46162;57.568;25.814;2022-11-15T07:28:58;100596.78;;;1.67;100.00
59650;BME280;46162;57.568;25.814;2022-11-15T07:31:45;100599.25;;;1.70;100.00
59650;BME280;46162;57.568;25.814;2022-11-15T07:34:34;100606.19;;;1.72;100.00
59650;BME280;46162;57.568;25.814;2022-11-15T07:37:21;100598.09;;;1.74;100.00
59650;BME280;46162;57.568;25.814;2022-11-15T07:40:09;100615.78;;;1.75;100.00
59650;BME280;46162;57.568;25.814;2022-11-15T07:42:59;100611.97;;;1.79;100.00
59650;BME280;46162;57.568;25.814;2022-11-15T07:45:47;100591.44;;;1.81;100.00
59650;BME280;46162;57.568;25.814;2022-11-15T07:48:40;100588.59;;;1.84;100.00
59650;BME280;46162;57.568;25.814;2022-11-15T07:51:31;100588.38;;;1.87;100.00
59650;BME280;46162;57.568;25.814;2022-11-15T07:54:18;100581.34;;;1.86;100.00
59650;BME280;46162;57.568;25.814;2022-11-15T07:57:05;100587.44;;;1.88;100.00
59650;BME280;46162;57.568;25.814;2022-11-15T07:59:54;100592.56;;;1.91;100.00
59650;BME280;46162;57.568;25.814;2022-11-15T08:02:42;100591.41;;;1.96;100.00
59650;BME280;46162;57.568;25.814;2022-11-15T08:05:30;100605.47;;;1.98;100.00
59650;BME280;46162;57.568;25.814;2022-11-15T08:08:19;100604.31;;;2.02;100.00
59650;BME280;46162;57.568;25.814;2022-11-15T08:11:06;100605.00;;;2.05;100.00
59650;BME280;46162;57.568;25.814;2022-11-15T08:13:53;100595.00;;;2.09;100.00
59650;BME280;46162;57.568;25.814;2022-11-15T08:16:41;100585.53;;;2.18;100.00
59650;BME280;46162;57.568;25.814;2022-11-15T08:19:28;100590.75;;;2.19;100.00
59650;BME280;46162;57.568;25.814;2022-11-15T08:22:16;100594.28;;;2.20;100.00
59650;BME280;46162;57.568;25.814;2022-11-15T08:25:05;100591.31;;;2.24;100.00
59650;BME280;46162;57.568;25.814;2022-11-15T08:27:52;100590.25;;;2.27;100.00
59650;BME280;46162;57.568;25.814;2022-11-15T08:30:41;100585.69;;;2.29;100.00
59650;BME280;46162;57.568;25.814;2022-11-15T08:33:31;100584.63;;;2.31;100.00
59650;BME280;46162;57.568;25.814;2022-11-15T08:36:19;100583.66;;;2.32;100.00
59650;BME280;46162;57.568;25.814;2022-11-15T08:39:06;100593.28;;;2.35;100.00
59650;BME280;46162;57.568;25.814;2022-11-15T08:41:57;100586.91;;;2.38;100.00
59650;BME280;46162;57.568;25.814;2022-11-15T08:44:44;100591.81;;;2.44;100.00
59650;BME280;46162;57.568;25.814;2022-11-15T08:47:31;100584.56;;;2.46;100.00
59650;BME280;46162;57.568;25.814;2022-11-15T08:50:19;100588.53;;;2.53;100.00
59650;BME280;46162;57.568;25.814;2022-11-15T08:53:06;100583.00;;;2.56;100.00
59650;BME280;46162;57.568;25.814;2022-11-15T08:55:54;100587.03;;;2.62;100.00
59650;BME280;46162;57.568;25.814;2022-11-15T08:58:43;100585.13;;;2.64;100.00
59650;BME280;46162;57.568;25.814;2022-11-15T09:01:31;100585.91;;;2.66;100.00
59650;BME280;46162;57.568;25.814;2022-11-15T09:04:18;100580.13;;;2.72;100.00
59650;BME280;46162;57.568;25.814;2022-11-15T09:07:06;100579.28;;;2.71;100.00
59650;BME280;46162;57.568;25.814;2022-11-15T09:09:53;100585.16;;;2.76;100.00
59650;BME280;46162;57.568;25.814;2022-11-15T09:12:40;100577.59;;;2.83;100.00
59650;BME280;46162;57.568;25.814;2022-11-15T09:15:29;100567.56;;;2.87;100.00
59650;BME280;46162;57.568;25.814;2022-11-15T09:18:16;100578.69;;;2.93;100.00
59650;BME280;46162;57.568;25.814;2022-11-15T09:21:07;100565.88;;;2.98;100.00
59650;BME280;46162;57.568;25.814;2022-11-15T09:23:54;100571.66;;;3.05;100.00
59650;BME280;46162;57.568;25.814;2022-11-15T09:26:41;100568.75;;;3.08;100.00
59650;BME280;46162;57.568;25.814;2022-11-15T09:29:29;100573.03;;;3.11;100.00
59650;BME280;46162;57.568;25.814;2022-11-15T09:32:18;100565.25;;;3.20;100.00
59650;BME280;46162;57.568;25.814;2022-11-15T09:35:06;100568.22;;;3.29;100.00
59650;BME280;46162;57.568;25.814;2022-11-15T09:37:53;100566.94;;;3.34;100.00
59650;BME280;46162;57.568;25.814;2022-11-15T09:40:40;100549.41;;;3.43;100.00
59650;BME280;46162;57.568;25.814;2022-11-15T09:43:32;100559.44;;;3.52;100.00
59650;BME280;46162;57.568;25.814;2022-11-15T09:46:42;100561.97;;;3.66;100.00
59650;BME280;46162;57.568;25.814;2022-11-15T09:49:35;100547.41;;;3.71;100.00
59650;BME280;46162;57.568;25.814;2022-11-15T09:52:15;100542.72;;;3.74;100.00
59650;BME280;46162;57.568;25.814;2022-11-15T09:54:48;100547.94;;;3.76;100.00
59650;BME280;46162;57.568;25.814;2022-11-15T09:57:24;100541.41;;;3.80;100.00
59650;BME280;46162;57.568;25.814;2022-11-15T10:00:11;100544.00;;;3.81;100.00
59650;BME280;46162;57.568;25.814;2022-11-15T10:03:09;100544.19;;;3.78;100.00
59650;BME280;46162;57.568;25.814;2022-11-15T10:05:42;100549.09;;;3.84;100.00
59650;BME280;46162;57.568;25.814;2022-11-15T10:08:22;100550.06;;;3.83;100.00
59650;BME280;46162;57.568;25.814;2022-11-15T10:10:56;100550.69;;;3.87;100.00
59650;BME280;46162;57.568;25.814;2022-11-15T10:13:46;100543.28;;;3.91;100.00
59650;BME280;46162;57.568;25.814;2022-11-15T10:16:31;100544.16;;;3.91;100.00
59650;BME280;46162;57.568;25.814;2022-11-15T10:19:09;100546.13;;;4.00;100.00
59650;BME280;46162;57.568;25.814;2022-11-15T10:21:51;100545.94;;;4.03;100.00
59650;BME280;46162;57.568;25.814;2022-11-15T10:24:26;100536.09;;;4.04;100.00
59650;BME280;46162;57.568;25.814;2022-11-15T10:26:56;100543.88;;;4.07;100.00
59650;BME280;46162;57.568;25.814;2022-11-15T10:29:25;100539.28;;;4.09;100.00
59650;BME280;46162;57.568;25.814;2022-11-15T10:31:54;100533.59;;;4.14;100.00
59650;BME280;46162;57.568;25.814;2022-11-15T10:34:23;100534.53;;;4.13;100.00
59650;BME280;46162;57.568;25.814;2022-11-15T10:36:59;100537.97;;;4.15;100.00
59650;BME280;46162;57.568;25.814;2022-11-15T10:39:29;100531.19;;;4.22;100.00
59650;BME280;46162;57.568;25.814;2022-11-15T10:42:15;100527.56;;;4.23;100.00
59650;BME280;46162;57.568;25.814;2022-11-15T10:44:44;100528.41;;;4.23;100.00
59650;BME280;46162;57.568;25.814;2022-11-15T10:47:34;100538.78;;;4.28;100.00
59650;BME280;46162;57.568;25.814;2022-11-15T10:50:11;100522.38;;;4.32;100.00
59650;BME280;46162;57.568;25.814;2022-11-15T10:52:56;100521.28;;;4.35;100.00
59650;BME280;46162;57.568;25.814;2022-11-15T10:55:27;100522.03;;;4.37;100.00
59650;BME280;46162;57.568;25.814;2022-11-15T10:58:02;100525.69;;;4.47;100.00
59650;BME280;46162;57.568;25.814;2022-11-15T11:00:36;100519.63;;;4.45;100.00
59650;BME280;46162;57.568;25.814;2022-11-15T11:03:27;100514.28;;;4.45;100.00
59650;BME280;46162;57.568;25.814;2022-11-15T11:06:04;100516.47;;;4.51;100.00
59650;BME280;46162;57.568;25.814;2022-11-15T11:08:35;100522.56;;;4.53;100.00
59650;BME280;46162;57.568;25.814;2022-11-15T11:11:04;100514.78;;;4.50;100.00
59650;BME280;46162;57.568;25.814;2022-11-15T11:13:37;100523.56;;;4.52;100.00
59650;BME280;46162;57.568;25.814;2022-11-15T11:16:42;100517.13;;;4.55;100.00
59650;BME280;46162;57.568;25.814;2022-11-15T11:19:20;100514.06;;;4.60;100.00
59650;BME280;46162;57.568;25.814;2022-11-15T11:22:00;100520.50;;;4.57;100.00
59650;BME280;46162;57.568;25.814;2022-11-15T11:24:36;100517.13;;;4.55;100.00
59650;BME280;46162;57.568;25.814;2022-11-15T11:27:25;100515.03;;;4.59;100.00
59650;BME280;46162;57.568;25.814;2022-11-15T11:30:09;100514.94;;;4.60;100.00
59650;BME280;46162;57.568;25.814;2022-11-15T11:32:51;100512.28;;;4.60;100.00
59650;BME280;46162;57.568;25.814;2022-11-15T11:35:29;100509.22;;;4.65;100.00
59650;BME280;46162;57.568;25.814;2022-11-15T11:38:15;100506.91;;;4.60;100.00
59650;BME280;46162;57.568;25.814;2022-11-15T11:40:59;100503.03;;;4.64;100.00
59650;BME280;46162;57.568;25.814;2022-11-15T11:43:36;100507.88;;;4.59;100.00
59650;BME280;46162;57.568;25.814;2022-11-15T11:46:29;100508.72;;;4.60;100.00
59650;BME280;46162;57.568;25.814;2022-11-15T11:49:03;100515.88;;;4.59;100.00
59650;BME280;46162;57.568;25.814;2022-11-15T11:51:38;100503.38;;;4.60;100.00
59650;BME280;46162;57.568;25.814;2022-11-15T11:54:13;100518.47;;;4.61;100.00
59650;BME280;46162;57.568;25.814;2022-11-15T11:56:45;100514.66;;;4.52;100.00
59650;BME280;46162;57.568;25.814;2022-11-15T11:59:19;100511.63;;;4.45;100.00
59650;BME280;46162;57.568;25.814;2022-11-15T12:01:51;100506.38;;;4.44;100.00
59650;BME280;46162;57.568;25.814;2022-11-15T12:04:23;100515.25;;;4.44;100.00
59650;BME280;46162;57.568;25.814;2022-11-15T12:06:58;100512.72;;;4.43;100.00
59650;BME280;46162;57.568;25.814;2022-11-15T12:09:32;100515.47;;;4.41;100.00
59650;BME280;46162;57.568;25.814;2022-11-15T12:12:08;100511.81;;;4.42;100.00
59650;BME280;46162;57.568;25.814;2022-11-15T12:14:43;100513.06;;;4.49;100.00
59650;BME280;46162;57.568;25.814;2022-11-15T12:17:16;100509.41;;;4.39;100.00
59650;BME280;46162;57.568;25.814;2022-11-15T12:19:46;100509.13;;;4.31;100.00
59650;BME280;46162;57.568;25.814;2022-11-15T12:22:19;100515.44;;;4.30;100.00
59650;BME280;46162;57.568;25.814;2022-11-15T12:24:53;100513.34;;;4.22;100.00
59650;BME280;46162;57.568;25.814;2022-11-15T12:27:32;100516.88;;;4.23;100.00
59650;BME280;46162;57.568;25.814;2022-11-15T12:30:04;100519.25;;;4.15;100.00
59650;BME280;46162;57.568;25.814;2022-11-15T12:32:38;100517.66;;;4.12;100.00
59650;BME280;46162;57.568;25.814;2022-11-15T12:35:23;100527.00;;;4.06;100.00
59650;BME280;46162;57.568;25.814;2022-11-15T12:37:53;100526.78;;;4.09;100.00
59650;BME280;46162;57.568;25.814;2022-11-15T12:40:25;100530.53;;;4.07;100.00
59650;BME280;46162;57.568;25.814;2022-11-15T12:43:04;100523.81;;;4.01;100.00
59650;BME280;46162;57.568;25.814;2022-11-15T12:45:35;100523.31;;;3.96;100.00
59650;BME280;46162;57.568;25.814;2022-11-15T12:54:58;100523.00;;;3.88;100.00
59650;BME280;46162;57.568;25.814;2022-11-15T12:57:40;100521.31;;;3.87;100.00
59650;BME280;46162;57.568;25.814;2022-11-15T13:00:44;100523.47;;;3.82;100.00
59650;BME280;46162;57.568;25.814;2022-11-15T13:03:22;100527.72;;;3.84;100.00
59650;BME280;46162;57.568;25.814;2022-11-15T13:14:42;100530.31;;;3.86;100.00
59650;BME280;46162;57.568;25.814;2022-11-15T13:17:36;100523.25;;;3.85;100.00
59650;BME280;46162;57.568;25.814;2022-11-15T13:20:25;100526.88;;;3.84;100.00
59650;BME280;46162;57.568;25.814;2022-11-15T13:23:02;100523.00;;;3.88;100.00
59650;BME280;46162;57.568;25.814;2022-11-15T13:26:03;100525.56;;;3.90;100.00
59650;BME280;46162;57.568;25.814;2022-11-15T13:28:38;100523.13;;;3.86;100.00
59650;BME280;46162;57.568;25.814;2022-11-15T13:31:24;100531.16;;;3.86;100.00
59650;BME280;46162;57.568;25.814;2022-11-15T13:33:55;100541.19;;;3.83;100.00
59650;BME280;46162;57.568;25.814;2022-11-15T13:36:27;100527.06;;;3.94;100.00
59650;BME280;46162;57.568;25.814;2022-11-15T13:39:00;100526.88;;;3.84;100.00
59650;BME280;46162;57.568;25.814;2022-11-15T13:41:31;100541.59;;;3.90;100.00
59650;BME280;46162;57.568;25.814;2022-11-15T13:44:02;100540.81;;;3.76;100.00
59650;BME280;46162;57.568;25.814;2022-11-15T13:46:35;100546.75;;;3.80;100.00
59650;BME280;46162;57.568;25.814;2022-11-15T13:49:05;100546.25;;;3.75;100.00
59650;BME280;46162;57.568;25.814;2022-11-15T13:51:37;100551.91;;;3.70;100.00
59650;BME280;46162;57.568;25.814;2022-11-15T13:54:14;100554.47;;;3.72;100.00
59650;BME280;46162;57.568;25.814;2022-11-15T13:56:48;100552.44;;;3.75;100.00
59650;BME280;46162;57.568;25.814;2022-11-15T13:59:25;100556.06;;;3.74;100.00
59650;BME280;46162;57.568;25.814;2022-11-15T14:01:58;100568.78;;;3.71;100.00
59650;BME280;46162;57.568;25.814;2022-11-15T14:04:29;100574.16;;;3.58;100.00
59650;BME280;46162;57.568;25.814;2022-11-15T14:07:01;100568.00;;;3.44;100.00
59650;BME280;46162;57.568;25.814;2022-11-15T14:09:33;100571.00;;;3.40;100.00
59650;BME280;46162;57.568;25.814;2022-11-15T14:12:23;100581.47;;;3.30;100.00
59650;BME280;46162;57.568;25.814;2022-11-15T14:14:52;100588.09;;;3.25;100.00
59650;BME280;46162;57.568;25.814;2022-11-15T14:17:37;100592.34;;;3.14;100.00
59650;BME280;46162;57.568;25.814;2022-11-15T14:20:26;100601.75;;;3.07;100.00
59650;BME280;46162;57.568;25.814;2022-11-15T14:22:57;100610.22;;;2.87;100.00
59650;BME280;46162;57.568;25.814;2022-11-15T14:25:27;100613.63;;;2.76;100.00
59650;BME280;46162;57.568;25.814;2022-11-15T14:28:27;100617.97;;;2.64;100.00
59650;BME280;46162;57.568;25.814;2022-11-15T14:30:59;100624.59;;;2.71;100.00
59650;BME280;46162;57.568;25.814;2022-11-15T14:33:32;100635.75;;;2.51;100.00
59650;BME280;46162;57.568;25.814;2022-11-15T14:36:04;100638.25;;;2.40;100.00
59650;BME280;46162;57.568;25.814;2022-11-15T14:38:33;100652.75;;;2.35;100.00